createdAt,value
2023-03-22T00:00:01.044Z,9.6
2023-03-22T00:02:00.965Z,9.5
2023-03-22T00:05:00.975Z,9.5
2023-03-22T00:08:01.040Z,9.4
2023-03-22T00:09:01.080Z,9.3
2023-03-22T00:11:00.965Z,9.4
2023-03-22T00:13:01.038Z,9.3
2023-03-22T00:15:00.998Z,9.3
2023-03-22T00:17:00.973Z,9.3
2023-03-22T00:18:00.980Z,9.2
2023-03-22T00:20:00.931Z,9.3
2023-03-22T00:21:01.052Z,9.4
2023-03-22T00:22:01.048Z,9.2
2023-03-22T00:26:01.004Z,9.2
2023-03-22T00:28:01.002Z,9.1
2023-03-22T00:33:00.978Z,8.9
2023-03-22T00:36:01.002Z,8.8
2023-03-22T00:37:01.001Z,8.9
2023-03-22T00:38:01.006Z,8.8
2023-03-22T00:39:01.038Z,8.7
2023-03-22T00:41:00.987Z,8.6
2023-03-22T00:43:00.979Z,8.6
2023-03-22T00:45:01.103Z,8.5
2023-03-22T00:47:00.982Z,8.6
2023-03-22T00:48:01.114Z,8.5
2023-03-22T00:50:00.992Z,8.4
2023-03-22T00:52:00.975Z,8.5
2023-03-22T00:53:00.962Z,8.4
2023-03-22T00:58:00.993Z,8.3
2023-03-22T01:00:00.964Z,8.4
2023-03-22T01:01:01.033Z,8.5
2023-03-22T01:03:00.953Z,8.5
2023-03-22T01:04:01.004Z,8.4
2023-03-22T01:06:00.932Z,8.4
2023-03-22T01:08:00.932Z,8.5
2023-03-22T01:09:01.004Z,8.3
2023-03-22T01:12:00.991Z,8.4
2023-03-22T01:15:01.006Z,8.2
2023-03-22T01:16:01.028Z,8.4
2023-03-22T01:19:00.958Z,8.3
2023-03-22T01:20:00.958Z,8.2
2023-03-22T01:22:00.974Z,8
2023-03-22T01:23:01.050Z,8.1
2023-03-22T01:25:01.065Z,8.1
2023-03-22T01:28:00.995Z,8.1
2023-03-22T01:30:01.137Z,8.3
2023-03-22T01:32:00.991Z,8.1
2023-03-22T01:36:01.225Z,8.1
2023-03-22T01:38:00.985Z,8
2023-03-22T01:40:01.022Z,8.1
2023-03-22T01:41:01.036Z,8
2023-03-22T01:43:01.004Z,8.1
2023-03-22T01:49:01.064Z,7.9
2023-03-22T01:52:01.054Z,7.8
2023-03-22T01:53:01.068Z,7.9
2023-03-22T01:57:01.006Z,7.8
2023-03-22T01:58:01.138Z,8
2023-03-22T02:00:01.162Z,7.8
2023-03-22T02:02:01.187Z,7.8
2023-03-22T02:05:01.247Z,7.7
2023-03-22T02:07:00.955Z,7.6
2023-03-22T02:08:00.970Z,7.7
2023-03-22T02:09:01.322Z,7.6
2023-03-22T02:11:00.954Z,7.6
2023-03-22T02:12:01.055Z,7.7
2023-03-22T02:14:00.987Z,7.5
2023-03-22T02:15:00.984Z,7.6
2023-03-22T02:16:01.017Z,7.5
2023-03-22T02:18:00.982Z,7.4
2023-03-22T02:19:01.035Z,7.5
2023-03-22T02:21:02.464Z,7.6
2023-03-22T02:23:00.934Z,7.5
2023-03-22T02:24:01.034Z,7.6
2023-03-22T02:27:01.005Z,7.4
2023-03-22T02:30:01.070Z,7.3
2023-03-22T02:33:00.955Z,7.3
2023-03-22T02:37:00.933Z,7.4
2023-03-22T02:38:00.937Z,7.2
2023-03-22T02:39:01.084Z,7.3
2023-03-22T02:43:00.947Z,7.3
2023-03-22T02:44:00.945Z,7.2
2023-03-22T02:50:00.976Z,7.1
2023-03-22T02:52:01.048Z,7.2
2023-03-22T02:54:00.948Z,7.1
2023-03-22T02:59:00.941Z,7
2023-03-22T03:00:01.000Z,6.9
2023-03-22T03:04:00.987Z,6.9
2023-03-22T03:05:01.115Z,7
2023-03-22T03:07:00.994Z,6.8
2023-03-22T03:09:00.969Z,6.9
2023-03-22T03:11:00.967Z,7
2023-03-22T03:15:01.159Z,6.9
2023-03-22T03:16:01.162Z,7
2023-03-22T03:19:00.968Z,6.9
2023-03-22T03:20:01.014Z,6.8
2023-03-22T03:21:00.987Z,6.9
2023-03-22T03:24:00.980Z,7
2023-03-22T03:26:00.921Z,6.9
2023-03-22T03:27:00.973Z,6.8
2023-03-22T03:28:00.952Z,6.9
2023-03-22T03:29:00.963Z,6.8
2023-03-22T03:30:01.019Z,6.9
2023-03-22T03:33:00.940Z,6.8
2023-03-22T03:34:00.947Z,6.7
2023-03-22T03:35:00.947Z,6.9
2023-03-22T03:36:00.966Z,6.8
2023-03-22T03:37:00.966Z,6.9
2023-03-22T03:40:00.964Z,6.8
2023-03-22T03:42:01.083Z,6.7
2023-03-22T03:45:00.969Z,6.9
2023-03-22T03:46:01.079Z,6.8
2023-03-22T03:48:01.010Z,6.7
2023-03-22T03:51:00.940Z,6.8
2023-03-22T03:53:00.933Z,6.7
2023-03-22T03:54:01.159Z,6.8
2023-03-22T04:01:00.966Z,6.6
2023-03-22T04:03:00.947Z,6.7
2023-03-22T04:04:01.056Z,6.6
2023-03-22T04:06:00.955Z,6.8
2023-03-22T04:08:00.990Z,6.7
2023-03-22T04:14:01.021Z,6.6
2023-03-22T04:15:00.965Z,6.7
2023-03-22T04:18:00.988Z,6.6
2023-03-22T04:21:00.953Z,6.7
2023-03-22T04:24:00.966Z,6.8
2023-03-22T04:26:00.953Z,6.7
2023-03-22T04:29:00.948Z,6.9
2023-03-22T04:35:00.953Z,6.8
2023-03-22T04:39:00.964Z,6.8
2023-03-22T04:40:00.979Z,6.9
2023-03-22T04:41:00.991Z,7
2023-03-22T04:44:00.987Z,6.9
2023-03-22T04:45:01.119Z,7
2023-03-22T04:48:01.053Z,7
2023-03-22T04:49:00.971Z,6.9
2023-03-22T04:53:00.978Z,6.8
2023-03-22T04:55:00.932Z,6.8
2023-03-22T04:57:00.949Z,7.1
2023-03-22T04:58:00.956Z,6.9
2023-03-22T04:59:00.973Z,6.8
2023-03-22T05:00:01.348Z,6.9
2023-03-22T05:02:01.016Z,6.9
2023-03-22T05:04:01.104Z,7
2023-03-22T05:06:01.069Z,7
2023-03-22T05:09:01.019Z,6.8
2023-03-22T05:10:00.983Z,7
2023-03-22T05:14:00.984Z,6.8
2023-03-22T05:15:01.060Z,7
2023-03-22T05:19:01.014Z,6.8
2023-03-22T05:21:00.962Z,7
2023-03-22T05:25:00.973Z,7.1
2023-03-22T05:30:01.057Z,7
2023-03-22T05:34:01.016Z,7
2023-03-22T05:38:01.001Z,7.1
2023-03-22T05:39:01.115Z,6.9
2023-03-22T05:42:01.004Z,7
2023-03-22T05:44:00.957Z,7.1
2023-03-22T05:47:00.986Z,7.2
2023-03-22T05:48:01.031Z,7.1
2023-03-22T05:49:01.097Z,7.2
2023-03-22T05:51:00.969Z,7.2
2023-03-22T05:52:00.983Z,7.3
2023-03-22T05:54:01.002Z,7.1
2023-03-22T05:56:01.054Z,7.1
2023-03-22T05:58:00.952Z,7.2
2023-03-22T05:59:01.008Z,7.3
2023-03-22T06:01:00.995Z,7.4
2023-03-22T06:02:01.156Z,7.2
2023-03-22T06:04:00.970Z,7.5
2023-03-22T06:07:00.964Z,7.5
2023-03-22T06:09:15.841Z,7.4
2023-03-22T06:11:01.033Z,7.6
2023-03-22T06:13:01.024Z,7.4
2023-03-22T06:15:01.036Z,7.5
2023-03-22T06:17:00.992Z,7.5
2023-03-22T06:19:00.983Z,7.6
2023-03-22T06:21:00.989Z,7.6
2023-03-22T06:23:01.014Z,7.7
2023-03-22T06:24:01.061Z,7.8
2023-03-22T06:29:01.003Z,7.9
2023-03-22T06:30:01.366Z,8
2023-03-22T06:33:00.929Z,8.2
2023-03-22T06:34:00.953Z,8.1
2023-03-22T06:35:01.147Z,8.2
2023-03-22T06:37:00.968Z,8.1
2023-03-22T06:39:01.050Z,8.1
2023-03-22T06:43:03.956Z,8.2
2023-03-22T06:45:00.979Z,8.1
2023-03-22T06:48:01.191Z,8.3
2023-03-22T06:50:00.942Z,8.3
2023-03-22T06:52:00.927Z,8.3
2023-03-22T06:54:00.931Z,8.5
2023-03-22T06:55:01.016Z,8.7
2023-03-22T06:57:00.980Z,9
2023-03-22T06:59:00.905Z,9.3
2023-03-22T07:00:01.034Z,9.4
2023-03-22T07:01:01.087Z,9.7
2023-03-22T07:02:01.021Z,9.9
2023-03-22T07:03:01.039Z,10.1
2023-03-22T07:05:01.017Z,10.4
2023-03-22T07:07:01.018Z,10.4
2023-03-22T07:08:01.060Z,10.3
2023-03-22T07:09:01.057Z,10.6
2023-03-22T07:12:01.365Z,10.6
2023-03-22T07:15:00.982Z,10.8
2023-03-22T07:18:01.013Z,10.8
2023-03-22T07:20:00.964Z,10.6
2023-03-22T07:21:00.945Z,10.7
2023-03-22T07:22:01.083Z,10.8
2023-03-22T07:24:01.104Z,10.8
2023-03-22T07:28:00.965Z,10.8
2023-03-22T07:30:00.971Z,10.9
2023-03-22T07:32:00.958Z,11
2023-03-22T07:37:00.966Z,11.1
2023-03-22T07:39:00.977Z,11.2
2023-03-22T07:42:00.930Z,11.3
2023-03-22T07:44:15.180Z,11.4
2023-03-22T07:45:01.090Z,11.5
2023-03-22T07:47:00.964Z,11.5
2023-03-22T07:48:00.979Z,11.4
2023-03-22T07:50:01.009Z,11.7
2023-03-22T07:52:00.979Z,11.6
2023-03-22T07:53:00.962Z,11.9
2023-03-22T07:56:00.996Z,12.1
2023-03-22T07:59:01.054Z,12.3
2023-03-22T08:00:01.027Z,12.5
2023-03-22T08:02:01.034Z,12.5
2023-03-22T08:06:00.984Z,12.8
2023-03-22T08:09:01.015Z,13
2023-03-22T08:11:00.997Z,13.1
2023-03-22T08:13:00.956Z,13.1
2023-03-22T08:14:00.978Z,13.2
2023-03-22T08:15:00.986Z,13.1
2023-03-22T08:17:00.993Z,13.3
2023-03-22T08:21:00.942Z,13.2
2023-03-22T08:22:00.954Z,13.3
2023-03-22T08:23:00.964Z,13.4
2023-03-22T08:24:00.959Z,13.5
2023-03-22T08:25:00.984Z,13.4
2023-03-22T08:28:01.062Z,13.5
2023-03-22T08:31:00.934Z,13.6
2023-03-22T08:32:01.018Z,13.7
2023-03-22T08:34:00.994Z,13.9
2023-03-22T08:38:00.993Z,13.7
2023-03-22T08:39:01.000Z,13.8
2023-03-22T08:41:00.936Z,13.9
2023-03-22T08:42:00.950Z,14
2023-03-22T08:43:00.955Z,13.9
2023-03-22T08:44:00.979Z,14.1
2023-03-22T08:46:00.958Z,14.1
2023-03-22T08:47:02.233Z,14.2
2023-03-22T08:48:01.011Z,14.3
2023-03-22T08:49:00.991Z,14.4
2023-03-22T08:51:00.957Z,14.5
2023-03-22T08:52:01.068Z,14.7
2023-03-22T08:54:00.959Z,14.7
2023-03-22T08:55:00.970Z,14.8
2023-03-22T08:56:00.994Z,14.7
2023-03-22T08:58:01.021Z,14.8
2023-03-22T09:03:00.960Z,15.1
2023-03-22T09:04:01.015Z,15.3
2023-03-22T09:07:00.956Z,15.6
2023-03-22T09:08:06.201Z,15.5
2023-03-22T09:11:00.970Z,15.7
2023-03-22T09:15:01.022Z,15.8
2023-03-22T09:19:00.944Z,15.9
2023-03-22T09:24:00.947Z,16
2023-03-22T09:27:00.971Z,16.2
2023-03-22T09:28:00.947Z,16
2023-03-22T09:31:00.992Z,15.9
2023-03-22T09:33:00.933Z,15.8
2023-03-22T09:34:00.951Z,15.6
2023-03-22T09:38:00.930Z,15.7
2023-03-22T09:40:01.119Z,15.8
2023-03-22T09:42:01.119Z,15.7
2023-03-22T09:44:01.113Z,15.4
2023-03-22T09:46:00.982Z,15.5
2023-03-22T09:47:01.029Z,15.6
2023-03-22T09:50:00.988Z,15.8
2023-03-22T09:52:00.985Z,15.6
2023-03-22T09:53:01.005Z,15.7
2023-03-22T09:55:00.931Z,15.6
2023-03-22T09:56:01.007Z,15.4
2023-03-22T09:58:00.965Z,15.5
2023-03-22T10:01:01.188Z,15.3
2023-03-22T10:02:01.238Z,15.4
2023-03-22T10:05:00.935Z,15.6
2023-03-22T10:10:01.020Z,15.8
2023-03-22T10:12:01.030Z,15.9
2023-03-22T10:14:01.009Z,16.1
2023-03-22T10:17:00.971Z,16
2023-03-22T10:18:01.015Z,16.1
2023-03-22T10:20:00.944Z,16
2023-03-22T10:21:00.992Z,16.1
2023-03-22T10:23:00.968Z,16.2
2023-03-22T10:28:00.950Z,16.4
2023-03-22T10:29:02.809Z,16.1
2023-03-22T10:30:01.009Z,16.2
2023-03-22T10:33:00.966Z,16.1
2023-03-22T10:34:00.953Z,16
2023-03-22T10:37:00.920Z,16.2
2023-03-22T10:40:01.044Z,16.4
2023-03-22T10:42:00.969Z,16.4
2023-03-22T10:44:00.969Z,16.5
2023-03-22T10:46:00.944Z,16.7
2023-03-22T10:48:00.959Z,16.6
2023-03-22T10:49:00.972Z,16.8
2023-03-22T10:51:00.985Z,17
2023-03-22T10:55:03.853Z,16.7
2023-03-22T10:56:00.960Z,16.8
2023-03-22T10:59:00.923Z,16.7
2023-03-22T11:01:01.033Z,16.9
2023-03-22T11:03:00.998Z,17.1
2023-03-22T11:12:00.932Z,17.1
2023-03-22T11:14:00.964Z,17.2
2023-03-22T11:15:01.028Z,17.1
2023-03-22T11:17:00.990Z,17.4
2023-03-22T11:20:00.947Z,17.3
2023-03-22T11:21:00.939Z,17.5
2023-03-22T11:22:00.993Z,17.6
2023-03-22T11:24:00.927Z,17.6
2023-03-22T11:26:00.914Z,17.8
2023-03-22T11:27:00.956Z,17.7
2023-03-22T11:28:00.932Z,17.6
2023-03-22T11:30:01.044Z,18
2023-03-22T11:32:00.983Z,18
2023-03-22T11:34:01.070Z,18.1
2023-03-22T11:36:01.000Z,18.1
2023-03-22T11:38:00.984Z,18.2
2023-03-22T11:41:00.944Z,18.3
2023-03-22T11:42:00.961Z,18.4
2023-03-22T11:43:01.027Z,18.5
2023-03-22T11:46:01.016Z,18.7
2023-03-22T11:48:01.003Z,18.8
2023-03-22T11:49:01.362Z,18.7
2023-03-22T11:51:01.100Z,18.6
2023-03-22T11:55:00.955Z,18.7
2023-03-22T11:58:00.946Z,18.5
2023-03-22T12:01:01.004Z,18.7
2023-03-22T12:03:00.999Z,18.8
2023-03-22T12:05:01.028Z,18.7
2023-03-22T12:07:01.020Z,18.6
2023-03-22T12:10:00.992Z,18.5
2023-03-22T12:13:00.956Z,18.4
2023-03-22T12:14:00.966Z,18.5
2023-03-22T12:16:01.018Z,18.6
2023-03-22T12:19:01.143Z,18.5
2023-03-22T12:23:00.972Z,18.5
2023-03-22T12:24:00.963Z,18.4
2023-03-22T12:27:00.980Z,18.3
2023-03-22T12:28:01.012Z,18.2
2023-03-22T12:32:01.039Z,18
2023-03-22T12:35:17.499Z,17.8
2023-03-22T12:37:00.954Z,17.9
2023-03-22T12:38:00.939Z,17.8
2023-03-22T12:39:00.995Z,17.7
2023-03-22T12:42:01.085Z,17.9
2023-03-22T12:44:01.031Z,17.6
2023-03-22T12:45:04.997Z,17.7
2023-03-22T12:46:01.094Z,17.9
2023-03-22T12:48:01.100Z,17.9
2023-03-22T12:50:01.155Z,18.2
2023-03-22T12:52:01.028Z,18.3
2023-03-22T12:53:00.991Z,18.2
2023-03-22T12:54:01.019Z,18.5
2023-03-22T12:56:01.017Z,18.6
2023-03-22T12:58:01.177Z,18.5
2023-03-22T13:02:01.114Z,18.4
2023-03-22T13:04:01.006Z,18.4
2023-03-22T13:05:01.040Z,18.5
2023-03-22T13:08:00.924Z,18.6
2023-03-22T13:11:01.000Z,18.7
2023-03-22T13:13:00.995Z,18.5
2023-03-22T13:14:01.006Z,18.8
2023-03-22T13:16:00.951Z,18.7
2023-03-22T13:18:00.985Z,18.7
2023-03-22T13:22:00.990Z,18.5
2023-03-22T13:25:00.999Z,18.3
2023-03-22T13:26:01.028Z,18.5
2023-03-22T13:28:01.000Z,18.2
2023-03-22T13:31:01.001Z,18.1
2023-03-22T13:33:00.985Z,18.1
2023-03-22T13:34:00.947Z,18
2023-03-22T13:36:01.010Z,17.9
2023-03-22T13:37:00.963Z,17.8
2023-03-22T13:40:00.971Z,17.7
2023-03-22T13:45:00.944Z,17.6
2023-03-22T13:46:00.959Z,17.8
2023-03-22T13:47:00.931Z,17.5
2023-03-22T13:48:01.089Z,17.6
2023-03-22T13:50:00.958Z,17.6
2023-03-22T13:52:00.957Z,17.5
2023-03-22T13:56:00.944Z,17.3
2023-03-22T14:00:09.874Z,17.2
2023-03-22T14:03:01.040Z,17.2
2023-03-22T14:04:00.937Z,17.1
2023-03-22T14:06:00.925Z,17.1
2023-03-22T14:07:00.947Z,17.3
2023-03-22T14:08:01.044Z,17.2
2023-03-22T14:10:00.950Z,17.3
2023-03-22T14:11:00.964Z,17.2
2023-03-22T14:15:00.958Z,17
2023-03-22T14:18:00.988Z,17
2023-03-22T14:19:00.954Z,17.1
2023-03-22T14:21:00.914Z,17
2023-03-22T14:53:00.913Z,16.9
2023-03-22T14:54:00.941Z,16.7
2023-03-22T15:00:00.970Z,16.8
2023-03-22T15:02:01.129Z,16.8
2023-03-22T15:06:00.943Z,16.5
2023-03-22T15:07:00.972Z,16.6
2023-03-22T15:09:00.961Z,16.5
2023-03-22T15:10:01.000Z,16.4
2023-03-22T15:12:00.954Z,16.3
2023-03-22T15:13:00.926Z,16.2
2023-03-22T15:15:00.977Z,16.3
2023-03-22T15:18:00.938Z,16.1
2023-03-22T15:20:00.969Z,16.3
2023-03-22T15:22:00.953Z,16.2
2023-03-22T15:24:00.944Z,16.2
2023-03-22T15:26:00.942Z,16.1
2023-03-22T15:28:00.963Z,16.2
2023-03-22T15:29:00.941Z,16.3
2023-03-22T15:30:00.985Z,16.2
2023-03-22T15:31:00.983Z,16.1
2023-03-22T15:33:01.074Z,16.2
2023-03-22T15:36:00.989Z,16.1
2023-03-22T15:39:00.950Z,16.1
2023-03-22T15:40:00.950Z,16
2023-03-22T15:44:00.982Z,15.9
2023-03-22T15:46:00.964Z,15.8
2023-03-22T15:47:00.935Z,15.9
2023-03-22T15:48:00.989Z,15.8
2023-03-22T15:50:00.986Z,15.9
2023-03-22T15:52:00.941Z,15.9
2023-03-22T15:54:00.948Z,15.6
2023-03-22T15:56:00.952Z,15.8
2023-03-22T15:57:00.933Z,15.7
2023-03-22T15:58:00.958Z,15.6
2023-03-22T16:00:00.983Z,15.7
2023-03-22T16:05:00.925Z,15.5
2023-03-22T16:07:00.931Z,15.6
2023-03-22T16:08:00.961Z,15.4
2023-03-22T16:09:01.000Z,15.5
2023-03-22T16:13:00.923Z,15.3
2023-03-22T16:15:01.096Z,15.2
2023-03-22T16:19:00.968Z,15.1
2023-03-22T16:21:00.977Z,15.1
2023-03-22T16:23:00.959Z,15.1
2023-03-22T16:24:00.965Z,14.9
2023-03-22T16:27:00.943Z,14.7
2023-03-22T16:29:00.930Z,14.8
2023-03-22T16:30:01.104Z,14.6
2023-03-22T16:32:01.017Z,14.6
2023-03-22T16:35:00.930Z,14.5
2023-03-22T16:39:00.961Z,14.4
2023-03-22T16:40:00.980Z,14.3
2023-03-22T16:43:00.940Z,14
2023-03-22T16:49:00.978Z,13.9
2023-03-22T16:51:00.930Z,13.9
2023-03-22T16:52:01.048Z,13.7
2023-03-22T16:54:01.006Z,13.8
2023-03-22T16:56:01.009Z,13.7
2023-03-22T16:59:00.930Z,13.5
2023-03-22T17:01:00.906Z,13.4
2023-03-22T17:02:00.948Z,13.5
2023-03-22T17:06:00.929Z,13.3
2023-03-22T17:08:00.934Z,13.4
2023-03-22T17:10:00.932Z,13.3
2023-03-22T17:13:00.968Z,13.2
2023-03-22T17:15:01.165Z,13.2
2023-03-22T17:17:00.952Z,13.1
2023-03-22T17:19:00.929Z,13.3
2023-03-22T17:20:00.972Z,13.1
2023-03-22T17:22:00.950Z,13.1
2023-03-22T17:24:00.974Z,12.9
2023-03-22T17:27:00.920Z,13
2023-03-22T17:32:04.038Z,12.9
2023-03-22T17:33:01.800Z,13
2023-03-22T17:37:00.949Z,12.9
2023-03-22T17:39:16.219Z,12.9
2023-03-22T17:42:00.944Z,13
2023-03-22T17:43:00.993Z,12.9
2023-03-22T17:46:39.971Z,12.9
2023-03-22T17:56:25.710Z,12.7
2023-03-22T17:59:01.195Z,12.8
2023-03-22T18:01:00.926Z,12.6
2023-03-22T18:02:01.087Z,12.7
2023-03-22T18:05:01.003Z,12.6
2023-03-22T18:07:00.981Z,12.6
2023-03-22T18:09:00.981Z,12.6
2023-03-22T18:10:00.993Z,12.7
2023-03-22T18:12:01.051Z,12.4
2023-03-22T18:14:10.778Z,12.6
2023-03-22T18:21:01.129Z,12.3
2023-03-22T18:23:00.986Z,12.3
2023-03-22T18:26:01.896Z,12.1
2023-03-22T18:38:00.968Z,12
2023-03-22T18:39:34.794Z,11.9
2023-03-22T18:45:01.615Z,11.9
2023-03-22T18:47:01.067Z,11.9
2023-03-22T18:49:01.030Z,12
2023-03-22T18:51:10.680Z,11.8
2023-03-22T18:54:01.049Z,12
2023-03-22T18:57:00.981Z,11.9
2023-03-22T18:59:01.102Z,11.8
2023-03-22T19:01:00.966Z,11.9
2023-03-22T19:03:00.967Z,11.8
2023-03-22T19:05:01.010Z,11.6
2023-03-22T19:07:01.120Z,11.7
2023-03-22T19:09:01.014Z,11.6
2023-03-22T19:11:00.947Z,11.6
2023-03-22T19:13:01.112Z,11.6
2023-03-22T19:17:01.019Z,11.7
2023-03-22T19:19:01.048Z,11.7
2023-03-22T19:23:00.963Z,11.6
2023-03-22T19:24:00.942Z,11.5
2023-03-22T19:25:00.965Z,11.7
2023-03-22T19:29:00.999Z,11.4
2023-03-22T19:32:01.012Z,11.5
2023-03-22T19:36:00.986Z,11.4
2023-03-22T19:38:00.985Z,11.5
2023-03-22T19:40:45.768Z,11.4
2023-03-22T19:42:06.667Z,11.3
2023-03-22T19:44:01.974Z,11.5
2023-03-22T19:45:01.136Z,11.3
2023-03-22T19:49:00.971Z,11.4
2023-03-22T19:50:01.087Z,11.5
2023-03-22T19:52:01.020Z,11.5
2023-03-22T19:55:01.161Z,11.4
2023-03-22T19:57:01.081Z,11.3
2023-03-22T20:00:28.740Z,11.5
2023-03-22T20:02:01.019Z,11.4
2023-03-22T20:03:01.239Z,11.4
2023-03-22T20:05:05.335Z,11.4
2023-03-22T20:08:01.017Z,11.4
2023-03-22T20:09:01.088Z,11.5
2023-03-22T20:11:01.796Z,11.4
2023-03-22T20:13:01.016Z,11.6
2023-03-22T20:16:01.026Z,11.6
2023-03-22T20:21:01.019Z,11.7
2023-03-22T20:23:00.960Z,11.5
2023-03-22T20:24:01.050Z,11.6
2023-03-22T20:29:01.168Z,11.7
2023-03-22T20:30:01.347Z,11.6
2023-03-22T20:32:00.945Z,11.6
2023-03-22T20:34:00.989Z,11.7
2023-03-22T20:36:01.028Z,11.6
2023-03-22T20:37:01.053Z,11.7
2023-03-22T20:39:01.240Z,11.7
2023-03-22T20:43:01.108Z,11.6
2023-03-22T20:45:01.156Z,11.7
2023-03-22T20:49:01.010Z,11.9
2023-03-22T20:52:00.948Z,11.7
2023-03-22T20:53:00.954Z,11.9
2023-03-22T20:55:01.045Z,11.9
2023-03-22T20:57:01.016Z,11.8
2023-03-22T21:00:00.959Z,12
2023-03-22T21:02:00.922Z,11.9
2023-03-22T21:03:00.935Z,11.8
2023-03-22T21:09:01.006Z,12
2023-03-22T21:12:01.001Z,12
2023-03-22T21:16:00.947Z,12.1
2023-03-22T21:17:00.971Z,12
2023-03-22T21:19:00.960Z,12
2023-03-22T21:20:00.952Z,12.1
2023-03-22T21:21:00.935Z,12
2023-03-22T21:23:00.966Z,11.9
2023-03-22T21:26:00.980Z,12
2023-03-22T21:27:00.974Z,12.2
2023-03-22T21:28:00.973Z,12.1
2023-03-22T21:32:00.936Z,12.1
2023-03-22T21:33:00.943Z,12
2023-03-22T21:34:00.984Z,12.2
2023-03-22T21:37:02.022Z,12.1
2023-03-22T21:39:00.956Z,12.3
2023-03-22T21:41:00.940Z,12.3
2023-03-22T21:42:00.976Z,12.2
2023-03-22T21:43:00.996Z,12.3
2023-03-22T21:46:00.929Z,12.2
2023-03-22T21:47:00.972Z,12.4
2023-03-22T21:49:00.947Z,12.4
2023-03-22T21:50:01.081Z,12.3
2023-03-22T21:51:00.982Z,12.4
2023-03-22T21:53:00.934Z,12.3
2023-03-22T21:54:00.979Z,12.4
2023-03-22T21:57:00.985Z,12.3
2023-03-22T22:00:00.927Z,12.5
2023-03-22T22:01:00.943Z,12.4
2023-03-22T22:03:00.951Z,12.4
2023-03-22T22:05:01.089Z,12.4
2023-03-22T22:07:01.003Z,12.6
2023-03-22T22:10:00.931Z,12.4
2023-03-22T22:11:00.942Z,12.6
2023-03-22T22:13:00.964Z,12.7
2023-03-22T22:15:01.018Z,12.6
2023-03-22T22:17:00.988Z,12.7
2023-03-22T22:20:01.110Z,12.6
2023-03-22T22:23:00.971Z,12.6
2023-03-22T22:24:01.025Z,12.7
2023-03-22T22:26:00.966Z,12.6
2023-03-22T22:27:00.957Z,12.8
2023-03-22T22:28:00.948Z,12.7
2023-03-22T22:29:00.956Z,12.6
2023-03-22T22:30:01.085Z,12.7
2023-03-22T22:32:01.076Z,12.6
2023-03-22T22:36:00.967Z,12.5
2023-03-22T22:37:00.945Z,12.7
2023-03-22T22:39:01.131Z,12.5
2023-03-22T22:42:00.965Z,12.6
2023-03-22T22:44:00.949Z,12.5
2023-03-22T22:46:00.940Z,12.6
2023-03-22T22:47:00.965Z,12.4
2023-03-22T22:49:00.972Z,12.5
2023-03-22T22:51:00.984Z,12.6
2023-03-22T22:53:01.010Z,12.3
2023-03-22T22:55:00.969Z,12.3
2023-03-22T22:57:00.961Z,12.4
2023-03-22T23:05:00.987Z,12.2
2023-03-22T23:08:00.970Z,12.3
2023-03-22T23:09:01.120Z,12.2
2023-03-22T23:11:00.944Z,12.4
2023-03-22T23:12:00.959Z,12.3
2023-03-22T23:15:00.980Z,12.3
2023-03-22T23:17:00.952Z,12.3
2023-03-22T23:18:09.854Z,12.2
2023-03-22T23:21:00.948Z,12.1
2023-03-22T23:24:00.916Z,12.1
2023-03-22T23:25:00.963Z,12.3
2023-03-22T23:26:00.985Z,12.1
2023-03-22T23:28:00.971Z,12
2023-03-22T23:30:01.015Z,12.2
2023-03-22T23:32:00.944Z,12
2023-03-22T23:33:00.939Z,12.1
2023-03-22T23:34:00.960Z,12
2023-03-22T23:36:01.033Z,12
2023-03-22T23:40:00.951Z,11.9
2023-03-22T23:41:01.009Z,12.1
2023-03-22T23:43:00.950Z,12.1
2023-03-22T23:45:00.975Z,12
2023-03-22T23:47:00.986Z,12.1
2023-03-22T23:48:00.973Z,12
2023-03-22T23:53:00.954Z,12.1
2023-03-22T23:59:01.015Z,12.2
